createdAt,value
2023-04-15T00:00:58.327Z,7.12
2023-04-15T00:03:25.394Z,7.14
2023-04-15T00:05:52.079Z,7.18
2023-04-15T00:08:18.445Z,7.19
2023-04-15T00:10:46.420Z,7.20
2023-04-15T00:13:12.755Z,7.18
2023-04-15T00:15:39.156Z,7.18
2023-04-15T00:18:05.480Z,7.15
2023-04-15T00:20:32.221Z,7.15
2023-04-15T00:23:00.456Z,7.12
2023-04-15T00:25:26.855Z,7.12
2023-04-15T00:27:53.620Z,7.15
2023-04-15T00:30:20.427Z,7.17
2023-04-15T00:32:46.953Z,7.18
2023-04-15T00:35:13.842Z,7.16
2023-04-15T00:37:40.459Z,7.12
2023-04-15T00:40:10.370Z,7.08
2023-04-15T00:42:36.726Z,6.98
2023-04-15T00:45:03.340Z,6.94
2023-04-15T00:47:31.349Z,6.88
2023-04-15T00:49:58.075Z,6.87
2023-04-15T00:52:24.556Z,6.85
2023-04-15T00:54:52.277Z,6.79
2023-04-15T00:57:19.052Z,6.77
2023-04-15T00:59:45.383Z,6.73
2023-04-15T01:02:12.125Z,6.67
2023-04-15T01:04:38.756Z,6.61
2023-04-15T01:07:05.152Z,6.59
2023-04-15T01:09:33.197Z,6.52
2023-04-15T01:11:59.740Z,6.45
2023-04-15T01:14:26.515Z,6.46
2023-04-15T01:16:53.187Z,6.47
2023-04-15T01:19:19.923Z,6.50
2023-04-15T01:21:46.920Z,6.53
2023-04-15T01:24:16.404Z,6.59
2023-04-15T01:26:44.530Z,6.57
2023-04-15T01:29:11.088Z,6.52
2023-04-15T01:31:37.593Z,6.50
2023-04-15T01:34:04.701Z,6.52
2023-04-15T01:36:31.068Z,6.51
2023-04-15T01:38:58.486Z,6.45
2023-04-15T01:41:28.390Z,6.42
2023-04-15T01:43:55.185Z,6.41
2023-04-15T01:46:21.624Z,6.45
2023-04-15T01:48:47.973Z,6.39
2023-04-15T01:51:14.426Z,6.35
2023-04-15T01:53:41.000Z,6.38
2023-04-15T01:56:08.033Z,6.36
2023-04-15T01:58:34.505Z,6.35
2023-04-15T02:01:02.341Z,6.33
2023-04-15T02:03:29.584Z,6.26
2023-04-15T02:05:56.709Z,6.21
2023-04-15T02:08:23.149Z,6.19
2023-04-15T02:10:49.566Z,6.14
2023-04-15T02:13:17.031Z,6.10
2023-04-15T02:15:50.621Z,5.96
2023-04-15T02:18:17.278Z,5.87
2023-04-15T02:20:44.040Z,5.85
2023-04-15T02:23:11.148Z,5.81
2023-04-15T02:25:38.886Z,5.80
2023-04-15T02:28:06.348Z,5.75
2023-04-15T02:30:33.809Z,5.75
2023-04-15T02:33:01.369Z,5.64
2023-04-15T02:35:27.832Z,5.56
2023-04-15T02:37:54.205Z,5.50
2023-04-15T02:40:20.720Z,5.47
2023-04-15T02:42:47.179Z,5.40
2023-04-15T02:45:13.595Z,5.25
2023-04-15T02:47:41.430Z,5.17
2023-04-15T02:50:12.425Z,5.06
2023-04-15T02:52:42.350Z,4.98
2023-04-15T02:55:09.677Z,4.99
2023-04-15T02:57:40.585Z,4.97
2023-04-15T03:00:09.609Z,5.03
2023-04-15T03:02:37.389Z,5.03
2023-04-15T03:05:04.519Z,5.05
2023-04-15T03:07:31.114Z,5.10
2023-04-15T03:09:57.755Z,5.11
2023-04-15T03:12:24.183Z,5.23
2023-04-15T03:14:50.792Z,5.33
2023-04-15T03:17:18.031Z,5.31
2023-04-15T03:19:44.443Z,5.35
2023-04-15T03:22:10.842Z,5.34
2023-04-15T03:24:37.285Z,5.32
2023-04-15T03:27:03.675Z,5.35
2023-04-15T03:29:30.037Z,5.34
2023-04-15T03:31:56.804Z,5.24
2023-04-15T03:34:23.186Z,5.16
2023-04-15T03:36:49.675Z,5.03
2023-04-15T03:39:16.551Z,4.86
2023-04-15T03:41:42.988Z,4.87
2023-04-15T03:44:09.427Z,4.79
2023-04-15T03:46:36.218Z,4.66
2023-04-15T03:49:02.898Z,4.53
2023-04-15T03:51:29.581Z,4.51
2023-04-15T03:53:55.988Z,4.48
2023-04-15T03:56:22.322Z,4.35
2023-04-15T03:58:48.707Z,4.30
2023-04-15T04:01:15.172Z,4.17
2023-04-15T04:03:41.748Z,4.08
2023-04-15T04:06:08.400Z,4.01
2023-04-15T04:08:34.816Z,3.95
2023-04-15T04:11:01.299Z,4.00
2023-04-15T04:13:27.611Z,4.19
2023-04-15T04:15:54.088Z,4.22
2023-04-15T04:18:20.598Z,4.05
2023-04-15T04:20:47.072Z,3.93
2023-04-15T04:23:13.512Z,3.88
2023-04-15T04:25:39.889Z,3.77
2023-04-15T04:28:06.284Z,3.80
2023-04-15T04:30:32.721Z,3.76
2023-04-15T04:32:59.177Z,3.74
2023-04-15T04:35:25.581Z,3.72
2023-04-15T04:37:52.435Z,3.71
2023-04-15T04:40:18.920Z,3.71
2023-04-15T04:42:45.445Z,3.60
2023-04-15T04:45:11.898Z,3.64
2023-04-15T04:47:38.292Z,3.62
2023-04-15T04:50:05.087Z,3.63
2023-04-15T04:52:31.604Z,3.67
2023-04-15T04:54:57.942Z,3.63
2023-04-15T04:57:24.264Z,3.67
2023-04-15T04:59:50.985Z,3.67
2023-04-15T05:02:17.498Z,3.62
2023-04-15T05:04:43.904Z,3.72
2023-04-15T05:07:10.788Z,3.84
2023-04-15T05:09:37.179Z,3.93
2023-04-15T05:12:07.670Z,3.96
2023-04-15T05:14:33.996Z,3.97
2023-04-15T05:17:00.309Z,3.98
2023-04-15T05:19:26.643Z,4.09
2023-04-15T05:21:52.981Z,4.22
2023-04-15T05:24:19.408Z,4.33
2023-04-15T05:26:46.286Z,4.43
2023-04-15T05:29:12.651Z,4.57
2023-04-15T05:31:39.182Z,4.70
2023-04-15T05:34:05.606Z,4.81
2023-04-15T05:36:32.003Z,4.95
2023-04-15T05:38:58.540Z,5.01
2023-04-15T05:41:24.929Z,5.09
2023-04-15T05:43:51.357Z,5.16
2023-04-15T05:46:17.732Z,5.26
2023-04-15T05:48:44.188Z,5.33
2023-04-15T05:51:11.011Z,5.33
2023-04-15T05:53:37.511Z,5.36
2023-04-15T05:56:04.203Z,5.38
2023-04-15T05:58:30.504Z,5.39
2023-04-15T06:00:57.026Z,5.42
2023-04-15T06:03:23.749Z,5.42
2023-04-15T06:05:50.182Z,5.43
2023-04-15T06:08:17.055Z,5.43
2023-04-15T06:10:43.436Z,5.49
2023-04-15T06:13:09.820Z,5.58
2023-04-15T06:15:36.673Z,5.73
2023-04-15T06:18:03.268Z,5.88
2023-04-15T06:20:29.708Z,6.03
2023-04-15T06:22:56.291Z,6.38
2023-04-15T06:25:22.975Z,6.82
2023-04-15T06:27:49.465Z,7.12
2023-04-15T06:30:15.996Z,7.34
2023-04-15T06:32:42.512Z,7.76
2023-04-15T06:35:09.475Z,8.14
2023-04-15T06:37:36.389Z,8.31
2023-04-15T06:40:04.956Z,8.56
2023-04-15T06:42:31.595Z,8.82
2023-04-15T06:44:57.979Z,8.96
2023-04-15T06:47:24.363Z,9.12
2023-04-15T06:49:50.916Z,9.39
2023-04-15T06:52:17.559Z,9.83
2023-04-15T06:54:43.981Z,10.31
2023-04-15T06:57:10.470Z,10.89
2023-04-15T06:59:36.784Z,11.67
2023-04-15T07:02:03.209Z,12.38
2023-04-15T07:04:29.697Z,12.79
2023-04-15T07:06:56.786Z,13.12
2023-04-15T07:09:24.621Z,13.07
2023-04-15T07:11:51.413Z,12.84
2023-04-15T07:14:18.052Z,12.25
2023-04-15T07:16:44.418Z,11.58
2023-04-15T07:19:10.912Z,11.18
2023-04-15T07:21:38.574Z,11.03
2023-04-15T07:24:06.731Z,10.97
2023-04-15T07:26:33.098Z,11.12
2023-04-15T07:28:59.550Z,11.39
2023-04-15T07:31:26.176Z,11.87
2023-04-15T07:33:53.275Z,12.78
2023-04-15T07:36:19.603Z,13.31
2023-04-15T07:38:45.988Z,13.78
2023-04-15T07:41:12.416Z,14.39
2023-04-15T07:43:38.902Z,14.57
2023-04-15T07:46:05.842Z,14.89
2023-04-15T07:48:32.315Z,14.62
2023-04-15T07:50:59.131Z,14.09
2023-04-15T07:53:26.085Z,14.53
2023-04-15T07:55:52.499Z,14.78
2023-04-15T07:58:18.876Z,14.66
2023-04-15T08:00:45.271Z,14.57
2023-04-15T08:03:11.918Z,14.03
2023-04-15T08:05:38.342Z,13.76
2023-04-15T08:08:04.961Z,13.91
2023-04-15T08:10:31.610Z,14.25
2023-04-15T08:12:58.415Z,14.67
2023-04-15T08:15:24.843Z,14.78
2023-04-15T08:17:51.429Z,14.87
2023-04-15T08:20:19.271Z,15.16
2023-04-15T08:22:47.727Z,14.87
2023-04-15T08:25:14.572Z,15.47
2023-04-15T08:27:41.010Z,16.19
2023-04-15T08:30:08.161Z,15.92
2023-04-15T08:32:34.575Z,15.71
2023-04-15T08:35:01.745Z,15.31
2023-04-15T08:37:28.105Z,15.53
2023-04-15T08:39:54.630Z,15.59
2023-04-15T08:42:27.932Z,15.41
2023-04-15T08:44:55.554Z,14.40
2023-04-15T08:47:27.242Z,14.01
2023-04-15T08:49:55.461Z,14.40
2023-04-15T08:52:22.478Z,14.79
2023-04-15T08:54:48.859Z,14.76
2023-04-15T08:57:15.987Z,15.07
2023-04-15T08:59:43.507Z,15.10
2023-04-15T09:02:09.974Z,15.19
2023-04-15T09:04:36.463Z,15.20
2023-04-15T09:07:02.851Z,15.65
2023-04-15T09:09:29.255Z,15.66
2023-04-15T09:11:55.843Z,15.63
2023-04-15T09:14:22.765Z,16.37
2023-04-15T09:17:00.043Z,16.03
2023-04-15T09:19:27.077Z,16.22
2023-04-15T09:21:58.687Z,16.95
2023-04-15T09:24:34.222Z,16.56
2023-04-15T09:27:01.039Z,16.19
2023-04-15T09:29:27.746Z,15.66
2023-04-15T09:31:54.108Z,15.87
2023-04-15T09:34:21.502Z,16.25
2023-04-15T09:36:50.930Z,16.12
2023-04-15T09:39:18.042Z,15.96
2023-04-15T09:41:44.542Z,15.13
2023-04-15T09:44:26.858Z,14.59
2023-04-15T09:46:53.457Z,14.65
2023-04-15T09:49:20.891Z,14.68
2023-04-15T09:51:58.011Z,14.76
2023-04-15T09:54:36.687Z,14.65
2023-04-15T09:57:10.233Z,14.78
2023-04-15T09:59:36.965Z,14.45
2023-04-15T10:02:06.415Z,14.15
2023-04-15T10:04:36.497Z,13.85
2023-04-15T10:07:05.045Z,14.88
2023-04-15T10:09:33.475Z,15.34
2023-04-15T10:12:01.051Z,16.11
2023-04-15T10:14:32.833Z,16.35
2023-04-15T10:17:04.348Z,16.02
2023-04-15T10:19:33.242Z,16.37
2023-04-15T10:22:00.199Z,16.83
2023-04-15T10:24:27.845Z,16.51
2023-04-15T10:26:55.265Z,16.20
2023-04-15T10:29:21.938Z,16.08
2023-04-15T10:31:48.895Z,17.00
2023-04-15T10:34:16.359Z,16.85
2023-04-15T10:36:42.828Z,16.95
2023-04-15T10:39:34.458Z,16.14
2023-04-15T10:42:16.816Z,14.73
2023-04-15T10:44:45.432Z,15.29
2023-04-15T10:47:18.993Z,15.53
2023-04-15T10:49:51.362Z,15.05
2023-04-15T10:52:22.768Z,14.30
2023-04-15T10:54:49.191Z,13.72
2023-04-15T10:57:22.559Z,14.09
2023-04-15T10:59:58.675Z,14.37
2023-04-15T11:02:46.510Z,14.66
2023-04-15T11:05:14.405Z,15.77
2023-04-15T11:07:46.933Z,16.33
2023-04-15T11:10:13.280Z,15.28
2023-04-15T11:12:41.075Z,14.55
2023-04-15T11:15:32.438Z,14.82
2023-04-15T11:18:20.739Z,14.77
2023-04-15T11:20:53.664Z,15.03
2023-04-15T11:23:27.595Z,15.40
2023-04-15T11:25:55.917Z,15.58
2023-04-15T11:28:25.959Z,17.17
2023-04-15T11:30:52.432Z,16.97
2023-04-15T11:33:18.867Z,16.51
2023-04-15T11:35:45.340Z,15.30
2023-04-15T11:38:13.790Z,15.28
2023-04-15T11:40:41.595Z,15.38
2023-04-15T11:43:16.606Z,16.48
2023-04-15T11:45:53.597Z,15.03
2023-04-15T11:48:22.185Z,16.64
2023-04-15T11:50:57.456Z,16.64
2023-04-15T11:53:24.861Z,16.44
2023-04-15T11:55:53.523Z,16.93
2023-04-15T11:58:24.810Z,15.24
2023-04-15T12:00:53.308Z,15.11
2023-04-15T12:03:31.878Z,16.16
2023-04-15T12:06:21.575Z,15.39
2023-04-15T12:08:52.773Z,14.77
2023-04-15T12:11:21.453Z,15.08
2023-04-15T12:13:50.200Z,15.88
2023-04-15T12:16:18.037Z,16.33
2023-04-15T12:18:50.929Z,16.41
2023-04-15T12:21:19.650Z,15.39
2023-04-15T12:23:53.479Z,15.67
2023-04-15T12:26:28.202Z,15.53
2023-04-15T12:29:06.957Z,15.23
2023-04-15T12:31:37.143Z,14.91
2023-04-15T12:34:07.634Z,14.85
2023-04-15T12:36:37.112Z,14.02
2023-04-15T12:39:05.061Z,13.64
2023-04-15T12:41:32.305Z,13.92
2023-04-15T12:43:59.222Z,14.02
2023-04-15T12:46:27.032Z,14.72
2023-04-15T12:48:53.421Z,14.91
2023-04-15T12:51:23.160Z,14.82
2023-04-15T12:53:49.738Z,14.85
2023-04-15T12:56:17.004Z,14.19
2023-04-15T12:58:43.391Z,14.04
2023-04-15T13:01:10.652Z,13.59
2023-04-15T13:03:37.278Z,13.30
2023-04-15T13:06:04.841Z,13.47
2023-04-15T13:08:31.819Z,13.44
2023-04-15T13:10:58.497Z,13.32
2023-04-15T13:13:24.869Z,13.20
2023-04-15T13:15:51.294Z,12.91
2023-04-15T13:18:17.671Z,12.78
2023-04-15T13:20:43.998Z,13.17
2023-04-15T13:23:10.533Z,13.04
2023-04-15T13:25:36.854Z,12.93
2023-04-15T13:28:03.272Z,12.74
2023-04-15T13:30:29.624Z,12.55
2023-04-15T13:32:56.081Z,12.52
2023-04-15T13:35:22.435Z,12.34
2023-04-15T13:37:48.826Z,12.23
2023-04-15T13:40:15.458Z,12.23
2023-04-15T13:42:42.965Z,12.37
2023-04-15T13:45:09.984Z,12.46
2023-04-15T13:47:36.500Z,12.85
2023-04-15T13:50:02.971Z,12.74
2023-04-15T13:52:29.346Z,12.57
2023-04-15T13:55:07.000Z,12.29
2023-04-15T13:57:42.249Z,12.52
2023-04-15T14:00:09.218Z,12.33
2023-04-15T14:02:35.781Z,12.02
2023-04-15T14:05:02.433Z,11.96
2023-04-15T14:07:31.933Z,12.01
2023-04-15T14:09:58.393Z,12.12
2023-04-15T14:12:24.725Z,12.07
2023-04-15T14:14:51.141Z,11.98
2023-04-15T14:17:17.609Z,11.84
2023-04-15T14:19:43.952Z,11.57
2023-04-15T14:22:10.622Z,11.54
2023-04-15T14:24:37.080Z,11.26
2023-04-15T14:27:03.588Z,11.25
2023-04-15T14:29:29.956Z,11.15
2023-04-15T14:32:04.293Z,10.82
2023-04-15T14:34:38.879Z,10.82
2023-04-15T14:37:05.281Z,10.87
2023-04-15T14:39:31.679Z,10.81
2023-04-15T14:41:58.713Z,10.79
2023-04-15T14:44:25.123Z,10.80
2023-04-15T14:46:51.878Z,10.92
2023-04-15T14:49:18.298Z,10.93
2023-04-15T14:51:44.687Z,11.00
2023-04-15T14:54:11.109Z,11.02
2023-04-15T14:56:37.662Z,10.96
2023-04-15T14:59:04.286Z,11.01
2023-04-15T15:01:30.865Z,10.79
2023-04-15T15:03:57.492Z,10.55
2023-04-15T15:06:25.963Z,10.46
2023-04-15T15:08:52.347Z,10.55
2023-04-15T15:11:18.743Z,10.61
2023-04-15T15:13:45.314Z,10.60
2023-04-15T15:16:14.289Z,10.65
2023-04-15T15:18:41.019Z,10.72
2023-04-15T15:21:07.387Z,10.66
2023-04-15T15:23:33.787Z,10.38
2023-04-15T15:26:00.345Z,10.22
2023-04-15T15:28:27.035Z,10.14
2023-04-15T15:30:53.373Z,10.21
2023-04-15T15:33:20.709Z,10.23
2023-04-15T15:35:47.168Z,10.25
2023-04-15T15:38:13.523Z,10.28
2023-04-15T15:40:39.931Z,10.21
2023-04-15T15:43:06.278Z,10.03
2023-04-15T15:45:32.825Z,9.82
2023-04-15T15:48:01.527Z,9.69
2023-04-15T15:50:27.893Z,9.59
2023-04-15T15:52:55.093Z,9.63
2023-04-15T15:55:21.568Z,9.69
2023-04-15T15:57:47.959Z,9.81
2023-04-15T16:00:14.646Z,9.81
2023-04-15T16:05:12.605Z,9.67
2023-04-15T16:07:38.981Z,9.61
2023-04-15T16:10:05.883Z,9.47
2023-04-15T16:12:33.850Z,9.38
2023-04-15T16:15:01.772Z,9.23
2023-04-15T16:17:28.154Z,9.19
2023-04-15T16:19:59.108Z,9.15
2023-04-15T16:22:27.290Z,9.08
2023-04-15T16:24:53.746Z,9.00
2023-04-15T16:27:20.090Z,9.05
2023-04-15T16:29:46.504Z,9.04
2023-04-15T16:32:13.021Z,9.05
2023-04-15T16:34:40.935Z,9.14
2023-04-15T16:37:07.234Z,9.13
2023-04-15T16:39:33.888Z,9.06
2023-04-15T16:42:00.342Z,8.96
2023-04-15T16:44:26.732Z,8.91
2023-04-15T16:46:53.100Z,8.95
2023-04-15T16:49:19.474Z,8.92
2023-04-15T16:51:45.850Z,8.93
2023-04-15T16:54:12.280Z,8.91
2023-04-15T16:56:38.665Z,8.93
2023-04-15T16:59:05.234Z,8.93
2023-04-15T17:01:31.907Z,8.92
2023-04-15T17:03:58.522Z,8.87
2023-04-15T17:06:24.961Z,8.79
2023-04-15T17:08:51.505Z,8.75
2023-04-15T17:11:17.944Z,8.67
2023-04-15T17:13:44.318Z,8.66
2023-04-15T17:16:10.924Z,8.67
2023-04-15T17:18:38.404Z,8.60
2023-04-15T17:21:05.180Z,8.60
2023-04-15T17:23:31.708Z,8.57
2023-04-15T17:25:58.126Z,8.56
2023-04-15T17:28:24.501Z,8.56
2023-04-15T17:30:50.909Z,8.55
2023-04-15T17:33:56.517Z,8.56
2023-04-15T17:36:04.297Z,8.55
2023-04-15T17:38:30.701Z,8.49
2023-04-15T17:40:57.014Z,8.45
2023-04-15T17:43:23.382Z,8.42
2023-04-15T17:45:50.820Z,8.47
2023-04-15T17:48:17.182Z,8.46
2023-04-15T17:50:43.484Z,8.43
2023-04-15T17:53:09.853Z,8.37
2023-04-15T17:55:36.598Z,8.36
2023-04-15T17:58:03.212Z,8.36
2023-04-15T18:00:29.548Z,8.39
2023-04-15T18:02:56.186Z,8.42
2023-04-15T18:05:22.970Z,8.38
2023-04-15T18:07:51.981Z,8.31
2023-04-15T18:10:18.734Z,8.34
2023-04-15T18:12:45.340Z,8.34
2023-04-15T18:15:11.753Z,8.33
2023-04-15T18:17:38.121Z,8.31
2023-04-15T18:20:06.195Z,8.28
2023-04-15T18:22:32.525Z,8.25
2023-04-15T18:25:03.933Z,8.25
2023-04-15T18:27:34.175Z,8.24
2023-04-15T18:30:00.812Z,8.24
2023-04-15T18:32:31.661Z,8.24
2023-04-15T18:34:58.344Z,8.21
2023-04-15T18:37:25.163Z,8.22
2023-04-15T18:39:51.686Z,8.19
2023-04-15T18:42:18.218Z,8.11
2023-04-15T18:44:44.595Z,8.07
2023-04-15T18:47:11.064Z,8.07
2023-04-15T18:49:37.476Z,8.01
2023-04-15T18:52:04.118Z,7.98
2023-04-15T18:54:30.625Z,7.98
2023-04-15T18:56:57.236Z,7.94
2023-04-15T18:59:29.573Z,7.90
2023-04-15T19:01:58.736Z,7.88
2023-04-15T19:04:25.415Z,7.88
2023-04-15T19:06:51.812Z,7.87
2023-04-15T19:09:18.211Z,7.84
2023-04-15T19:11:44.672Z,7.83
2023-04-15T19:14:11.637Z,7.85
2023-04-15T19:16:38.104Z,7.84
2023-04-15T19:19:06.504Z,7.84
2023-04-15T19:21:33.211Z,7.84
2023-04-15T19:24:00.476Z,7.84
2023-04-15T19:26:26.908Z,7.85
2023-04-15T19:28:53.894Z,7.81
2023-04-15T19:31:20.757Z,7.77
2023-04-15T19:33:47.247Z,7.76
2023-04-15T19:36:13.741Z,7.74
2023-04-15T19:38:40.333Z,7.72
2023-04-15T19:41:06.741Z,7.73
2023-04-15T19:43:33.272Z,7.73
2023-04-15T19:45:59.885Z,7.74
2023-04-15T19:48:26.393Z,7.72
2023-04-15T19:50:52.794Z,7.72
2023-04-15T19:53:19.135Z,7.70
2023-04-15T19:55:46.905Z,7.68
2023-04-15T19:58:13.271Z,7.71
2023-04-15T20:00:39.643Z,7.71
2023-04-15T20:03:06.298Z,7.72
2023-04-15T20:05:32.888Z,7.73
2023-04-15T20:08:03.165Z,7.75
2023-04-15T20:10:31.617Z,7.79
2023-04-15T20:12:58.033Z,7.79
2023-04-15T20:15:24.621Z,7.79
2023-04-15T20:17:51.113Z,7.81
2023-04-15T20:20:17.560Z,7.81
2023-04-15T20:22:43.908Z,7.81
2023-04-15T20:25:10.388Z,7.83
2023-04-15T20:27:36.836Z,7.83
2023-04-15T20:30:04.959Z,7.84
2023-04-15T20:32:35.848Z,7.85
2023-04-15T20:35:03.233Z,7.85
2023-04-15T20:37:30.840Z,7.88
2023-04-15T20:39:57.272Z,7.85
2023-04-15T20:42:23.593Z,7.86
2023-04-15T20:44:49.982Z,7.86
2023-04-15T20:47:16.533Z,7.84
2023-04-15T20:49:43.105Z,7.83
2023-04-15T20:52:09.652Z,7.82
2023-04-15T20:54:36.118Z,7.84
2023-04-15T20:57:02.563Z,7.84
2023-04-15T20:59:29.015Z,7.82
2023-04-15T21:01:57.031Z,7.81
2023-04-15T21:04:24.424Z,7.81
2023-04-15T21:06:52.008Z,7.80
2023-04-15T21:09:18.690Z,7.77
2023-04-15T21:14:18.595Z,7.83
2023-04-15T21:16:45.086Z,7.80
2023-04-15T21:19:11.485Z,7.77
2023-04-15T21:21:37.886Z,7.80
2023-04-15T21:24:04.351Z,7.78
2023-04-15T21:26:30.835Z,7.79
2023-04-15T21:28:57.231Z,7.78
2023-04-15T21:31:23.772Z,7.76
2023-04-15T21:33:50.295Z,7.76
2023-04-15T21:36:16.725Z,7.74
2023-04-15T21:38:43.047Z,7.72
2023-04-15T21:41:10.225Z,7.73
2023-04-15T21:43:37.122Z,7.71
2023-04-15T21:46:22.275Z,7.71
2023-04-15T21:48:50.182Z,7.72
2023-04-15T21:51:16.550Z,7.73
2023-04-15T21:53:43.029Z,7.73
2023-04-15T21:56:09.466Z,7.72
2023-04-15T21:58:36.143Z,7.71
2023-04-15T22:01:03.658Z,7.72
2023-04-15T22:03:33.518Z,7.75
2023-04-15T22:06:04.187Z,7.76
2023-04-15T22:08:38.244Z,7.77
2023-04-15T22:11:20.554Z,7.78
2023-04-15T22:13:47.041Z,7.80
2023-04-15T22:16:13.431Z,7.80
2023-04-15T22:18:39.766Z,7.81
2023-04-15T22:21:06.178Z,7.84
2023-04-15T22:23:32.505Z,7.87
2023-04-15T22:25:59.489Z,7.88
2023-04-15T22:28:25.902Z,7.89
2023-04-15T22:30:54.515Z,7.90
2023-04-15T22:33:20.984Z,7.92
2023-04-15T22:35:47.355Z,7.90
2023-04-15T22:38:13.787Z,7.89
2023-04-15T22:40:40.495Z,7.89
2023-04-15T22:43:06.887Z,7.90
2023-04-15T22:45:33.264Z,7.91
2023-04-15T22:47:59.714Z,7.94
2023-04-15T22:50:26.150Z,7.94
2023-04-15T22:52:52.614Z,7.96
2023-04-15T22:55:19.034Z,7.97
2023-04-15T22:57:45.458Z,8.01
2023-04-15T23:00:12.310Z,8.00
2023-04-15T23:02:38.885Z,8.02
2023-04-15T23:05:13.024Z,8.05
2023-04-15T23:07:40.029Z,8.06
2023-04-15T23:10:07.959Z,8.03
2023-04-15T23:12:34.387Z,8.05
2023-04-15T23:15:00.831Z,8.04
2023-04-15T23:17:27.280Z,8.05
2023-04-15T23:19:53.790Z,8.04
2023-04-15T23:22:20.184Z,8.05
2023-04-15T23:24:46.620Z,8.05
2023-04-15T23:27:12.988Z,8.01
2023-04-15T23:29:39.374Z,8.03
2023-04-15T23:32:06.476Z,8.02
2023-04-15T23:34:32.828Z,8.02
2023-04-15T23:36:59.183Z,8.04
2023-04-15T23:39:25.607Z,8.02
2023-04-15T23:41:51.947Z,7.98
2023-04-15T23:44:18.380Z,7.97
2023-04-15T23:46:44.770Z,7.98
2023-04-15T23:49:11.286Z,7.98
2023-04-15T23:51:37.827Z,7.96
2023-04-15T23:54:04.204Z,7.96
2023-04-15T23:56:31.341Z,7.95
2023-04-15T23:58:57.806Z,7.97
